createdAt,value
2018-07-05T00:00:31.681Z,22.90
2018-07-05T00:03:11.132Z,23.00
2018-07-05T00:05:50.752Z,23.00
2018-07-05T00:08:30.112Z,22.90
2018-07-05T00:11:09.710Z,22.90
2018-07-05T00:13:49.301Z,22.80
2018-07-05T00:16:28.696Z,22.70
2018-07-05T00:19:08.261Z,22.70
2018-07-05T00:21:47.841Z,22.80
2018-07-05T00:24:27.409Z,22.80
2018-07-05T00:27:07.092Z,22.80
2018-07-05T00:29:46.712Z,22.60
2018-07-05T00:32:26.195Z,22.50
2018-07-05T00:35:05.802Z,22.40
2018-07-05T00:37:45.193Z,22.40
2018-07-05T00:40:24.702Z,22.40
2018-07-05T00:43:04.148Z,22.50
2018-07-05T00:45:43.825Z,22.30
2018-07-05T00:48:23.303Z,22.20
2018-07-05T00:53:36.423Z,22.00
2018-07-05T00:56:16.008Z,22.00
2018-07-05T00:58:55.500Z,22.00
2018-07-05T01:01:35.072Z,22.00
2018-07-05T01:04:14.720Z,22.10
2018-07-05T01:06:54.144Z,22.10
2018-07-05T01:09:33.781Z,22.10
2018-07-05T01:12:13.272Z,22.10
2018-07-05T01:14:52.881Z,22.00
2018-07-05T01:17:32.366Z,22.00
2018-07-05T01:20:11.681Z,21.80
2018-07-05T01:22:51.253Z,21.70
2018-07-05T01:25:31.459Z,21.60
2018-07-05T01:28:10.932Z,21.50
2018-07-05T01:30:51.067Z,21.50
2018-07-05T01:33:30.748Z,21.50
2018-07-05T01:36:10.271Z,21.50
2018-07-05T01:38:49.733Z,21.50
2018-07-05T01:41:29.269Z,21.50
2018-07-05T01:44:08.790Z,21.40
2018-07-05T01:46:48.281Z,21.30
2018-07-05T01:49:27.912Z,21.30
2018-07-05T01:52:11.476Z,21.30
2018-07-05T01:54:51.844Z,21.20
2018-07-05T01:57:31.625Z,21.20
2018-07-05T02:00:11.034Z,21.10
2018-07-05T02:02:51.185Z,21.00
2018-07-05T02:05:30.661Z,21.00
2018-07-05T02:08:10.318Z,20.90
2018-07-05T02:10:49.741Z,20.80
2018-07-05T02:13:29.323Z,20.70
2018-07-05T02:16:08.753Z,20.70
2018-07-05T02:18:48.520Z,20.70
2018-07-05T02:21:28.173Z,20.60
2018-07-05T02:24:07.778Z,20.60
2018-07-05T02:26:47.239Z,20.60
2018-07-05T02:29:26.787Z,20.50
2018-07-05T02:32:06.300Z,20.50
2018-07-05T02:34:45.906Z,20.40
2018-07-05T02:37:30.856Z,20.30
2018-07-05T02:40:10.479Z,20.10
2018-07-05T02:42:49.850Z,20.20
2018-07-05T02:45:29.396Z,20.10
2018-07-05T02:48:08.887Z,20.10
2018-07-05T02:50:48.607Z,20.00
2018-07-05T02:53:28.075Z,20.00
2018-07-05T02:56:07.687Z,20.00
2018-07-05T02:58:47.152Z,20.00
2018-07-05T03:01:26.736Z,20.10
2018-07-05T03:04:06.144Z,20.00
2018-07-05T03:06:45.734Z,19.80
2018-07-05T03:09:25.337Z,19.90
2018-07-05T03:12:04.793Z,19.90
2018-07-05T03:14:44.484Z,20.00
2018-07-05T03:17:23.996Z,19.90
2018-07-05T03:20:03.361Z,20.00
2018-07-05T03:22:42.998Z,20.00
2018-07-05T03:25:22.605Z,20.00
2018-07-05T03:28:02.201Z,20.10
2018-07-05T03:30:41.812Z,20.00
2018-07-05T03:33:21.472Z,19.90
2018-07-05T03:36:01.113Z,19.90
2018-07-05T03:38:40.814Z,20.00
2018-07-05T03:41:20.365Z,19.90
2018-07-05T03:43:59.856Z,20.00
2018-07-05T03:46:39.233Z,20.00
2018-07-05T03:49:18.765Z,20.00
2018-07-05T03:51:58.209Z,19.90
2018-07-05T03:54:37.955Z,19.90
2018-07-05T03:57:17.552Z,19.90
2018-07-05T03:59:57.206Z,19.90
2018-07-05T04:05:10.344Z,20.00
2018-07-05T04:07:49.783Z,20.00
2018-07-05T04:10:29.352Z,20.10
2018-07-05T04:13:08.956Z,20.20
2018-07-05T04:15:48.354Z,20.30
2018-07-05T04:18:28.150Z,20.20
2018-07-05T04:21:07.600Z,20.30
2018-07-05T04:23:47.161Z,20.40
2018-07-05T04:26:26.694Z,20.50
2018-07-05T04:29:06.220Z,20.60
2018-07-05T04:31:45.910Z,20.80
2018-07-05T04:34:25.260Z,20.90
2018-07-05T04:37:04.835Z,21.00
2018-07-05T04:39:44.364Z,21.10
2018-07-05T04:42:23.989Z,21.00
2018-07-05T04:45:03.546Z,21.00
2018-07-05T04:47:43.246Z,21.10
2018-07-05T04:50:22.674Z,21.20
2018-07-05T04:53:02.289Z,21.20
2018-07-05T04:55:41.855Z,21.20
2018-07-05T04:58:21.386Z,21.30
2018-07-05T05:01:00.910Z,21.30
2018-07-05T05:03:40.505Z,21.30
2018-07-05T05:06:19.888Z,21.30
2018-07-05T05:08:59.708Z,21.30
2018-07-05T05:11:39.302Z,21.40
2018-07-05T05:14:19.365Z,21.50
2018-07-05T05:16:58.980Z,21.60
2018-07-05T05:19:38.462Z,21.70
2018-07-05T05:22:18.026Z,21.60
2018-07-05T05:24:57.513Z,21.50
2018-07-05T05:27:37.228Z,21.40
2018-07-05T05:30:16.886Z,21.60
2018-07-05T05:32:56.393Z,21.60
2018-07-05T05:35:36.047Z,21.90
2018-07-05T05:38:15.679Z,22.10
2018-07-05T05:40:55.172Z,22.10
2018-07-05T05:43:34.688Z,22.10
2018-07-05T05:46:14.256Z,22.10
2018-07-05T05:48:53.919Z,22.20
2018-07-05T05:51:33.357Z,22.30
2018-07-05T05:54:12.968Z,22.30
2018-07-05T05:56:52.476Z,22.30
2018-07-05T05:59:32.037Z,22.30
2018-07-05T06:02:11.731Z,22.30
2018-07-05T06:04:51.416Z,22.40
2018-07-05T06:07:31.072Z,22.40
2018-07-05T06:10:10.626Z,22.50
2018-07-05T06:12:50.200Z,22.50
2018-07-05T06:15:29.797Z,22.60
2018-07-05T06:18:09.475Z,22.70
2018-07-05T06:20:49.054Z,22.70
2018-07-05T06:23:28.625Z,22.80
2018-07-05T06:26:08.141Z,22.70
2018-07-05T06:28:47.831Z,22.70
2018-07-05T06:31:27.248Z,22.80
2018-07-05T06:34:06.858Z,23.00
2018-07-05T06:36:46.398Z,23.20
2018-07-05T06:39:26.120Z,23.40
2018-07-05T06:44:39.202Z,23.60
2018-07-05T06:47:18.611Z,23.70
2018-07-05T06:49:58.192Z,23.90
2018-07-05T06:52:37.859Z,24.20
2018-07-05T06:55:17.342Z,24.20
2018-07-05T06:57:57.126Z,24.30
2018-07-05T07:00:36.656Z,24.70
2018-07-05T07:03:16.341Z,25.10
2018-07-05T07:05:55.960Z,25.40
2018-07-05T09:33:56.180Z,26.10
2018-07-05T09:36:23.341Z,47.50
2018-07-05T09:38:50.526Z,43.90
2018-07-05T09:41:17.749Z,40.90
2018-07-05T09:43:44.920Z,39.40
2018-07-05T09:46:12.110Z,38.20
2018-07-05T09:48:39.385Z,36.90
2018-07-05T09:51:06.578Z,35.90
2018-07-05T09:53:33.803Z,37.10
2018-07-05T09:56:01.340Z,38.80
2018-07-05T09:58:28.520Z,38.60
2018-07-05T10:00:55.700Z,38.60
2018-07-05T10:03:24.080Z,38.10
2018-07-05T10:05:51.215Z,36.70
2018-07-05T10:08:19.147Z,35.70
2018-07-05T10:10:46.346Z,34.80
2018-07-05T10:13:13.646Z,33.90
2018-07-05T10:15:40.866Z,33.20
2018-07-05T10:18:08.086Z,32.80
2018-07-05T10:20:35.302Z,33.80
2018-07-05T10:23:03.338Z,35.70
2018-07-05T10:25:30.534Z,36.80
2018-07-05T10:27:57.707Z,37.40
2018-07-05T10:30:37.097Z,38.00
2018-07-05T10:33:16.789Z,38.80
2018-07-05T10:35:43.992Z,39.40
2018-07-05T10:38:11.201Z,39.80
2018-07-05T10:40:50.802Z,39.30
2018-07-05T10:43:30.500Z,38.90
2018-07-05T10:46:10.189Z,38.60
2018-07-05T10:48:49.741Z,38.80
2018-07-05T10:51:29.345Z,39.00
2018-07-05T10:54:09.054Z,39.10
2018-07-05T10:56:48.507Z,38.90
2018-07-05T10:59:28.170Z,38.10
2018-07-05T11:02:07.518Z,37.00
2018-07-05T11:04:47.199Z,36.80
2018-07-05T11:07:26.771Z,36.20
2018-07-05T11:10:06.197Z,35.70
2018-07-05T11:12:45.784Z,35.10
2018-07-05T11:15:25.524Z,34.70
2018-07-05T11:18:05.141Z,34.50
2018-07-05T11:20:44.784Z,34.00
2018-07-05T11:23:24.516Z,33.70
2018-07-05T11:26:04.206Z,33.90
2018-07-05T11:28:43.803Z,33.80
2018-07-05T11:31:24.304Z,33.50
2018-07-05T11:34:03.747Z,33.30
2018-07-05T11:36:43.430Z,33.40
2018-07-05T11:39:23.132Z,33.40
2018-07-05T11:42:02.652Z,33.40
2018-07-05T11:44:42.225Z,33.20
2018-07-05T11:47:21.925Z,33.00
2018-07-05T11:50:01.521Z,33.10
2018-07-05T11:52:40.960Z,33.10
2018-07-05T11:55:20.644Z,33.50
2018-07-05T11:58:00.233Z,33.70
2018-07-05T12:00:40.263Z,33.70
2018-07-05T12:03:19.887Z,33.80
2018-07-05T12:05:59.556Z,33.60
2018-07-05T12:08:39.424Z,33.80
2018-07-05T12:11:19.090Z,33.90
2018-07-05T12:13:58.653Z,34.00
2018-07-05T12:16:38.479Z,33.60
2018-07-05T12:19:18.044Z,33.50
2018-07-05T12:21:57.608Z,33.10
2018-07-05T12:24:37.229Z,32.90
2018-07-05T12:27:16.859Z,32.80
2018-07-05T12:29:56.528Z,32.90
2018-07-05T12:32:36.117Z,33.00
2018-07-05T12:35:15.752Z,33.20
2018-07-05T12:37:55.297Z,33.40
2018-07-05T12:40:34.965Z,33.40
2018-07-05T12:43:14.381Z,33.50
2018-07-05T12:45:53.985Z,33.70
2018-07-05T12:48:33.597Z,33.40
2018-07-05T12:51:13.127Z,33.00
2018-07-05T12:53:52.913Z,32.80
2018-07-05T12:56:32.377Z,32.60
2018-07-05T12:59:12.135Z,32.30
2018-07-05T13:01:51.748Z,32.30
2018-07-05T13:04:31.144Z,32.10
2018-07-05T13:07:10.799Z,31.90
2018-07-05T13:09:50.500Z,31.60
2018-07-05T13:12:30.475Z,31.10
2018-07-05T13:15:10.064Z,30.90
2018-07-05T13:17:49.435Z,30.70
2018-07-05T13:20:29.057Z,30.70
2018-07-05T13:23:08.550Z,30.60
2018-07-05T13:25:48.133Z,30.60
2018-07-05T13:28:27.628Z,30.40
2018-07-05T13:31:07.307Z,30.50
2018-07-05T13:33:46.877Z,30.50
2018-07-05T13:36:26.393Z,30.80
2018-07-05T13:39:06.428Z,30.80
2018-07-05T13:41:46.030Z,31.00
2018-07-05T13:44:25.884Z,31.30
2018-07-05T13:47:05.613Z,31.10
2018-07-05T13:49:46.117Z,31.30
2018-07-05T13:52:25.629Z,31.20
2018-07-05T13:55:05.333Z,30.80
2018-07-05T13:57:44.756Z,30.50
2018-07-05T14:00:24.384Z,30.50
2018-07-05T14:03:03.997Z,30.60
2018-07-05T14:05:43.653Z,30.60
2018-07-05T14:08:23.176Z,30.40
2018-07-05T14:11:02.783Z,30.20
2018-07-05T14:13:42.491Z,30.10
2018-07-05T14:16:21.964Z,30.10
2018-07-05T14:19:01.631Z,30.10
2018-07-05T14:21:41.200Z,29.90
2018-07-05T14:24:20.916Z,29.80
2018-07-05T14:27:00.556Z,29.60
2018-07-05T14:29:40.259Z,29.50
2018-07-05T14:32:19.945Z,29.40
2018-07-05T14:34:59.624Z,29.40
2018-07-05T14:37:39.083Z,29.30
2018-07-05T14:40:18.824Z,29.20
2018-07-05T14:42:58.387Z,28.60
2018-07-05T14:45:37.965Z,28.30
2018-07-05T14:48:17.831Z,27.50
2018-07-05T14:50:57.497Z,27.30
2018-07-05T14:53:37.172Z,27.10
2018-07-05T14:56:17.585Z,26.20
2018-07-05T14:58:57.182Z,25.90
2018-07-05T15:01:36.870Z,25.60
2018-07-05T15:04:16.427Z,25.20
2018-07-05T15:06:56.670Z,24.90
2018-07-05T15:09:36.332Z,24.20
2018-07-05T15:12:15.973Z,23.80
2018-07-05T15:14:55.489Z,23.50
2018-07-05T15:17:35.281Z,23.40
2018-07-05T15:20:14.930Z,23.10
2018-07-05T15:22:54.548Z,23.10
2018-07-05T15:25:34.188Z,22.90
2018-07-05T15:28:13.827Z,22.80
2018-07-05T15:30:53.384Z,22.60
2018-07-05T15:33:33.026Z,22.50
2018-07-05T15:36:12.476Z,22.60
2018-07-05T15:38:52.158Z,22.50
2018-07-05T15:41:31.592Z,22.50
2018-07-05T15:44:11.632Z,22.40
2018-07-05T15:46:51.125Z,22.40
2018-07-05T15:52:04.390Z,22.70
2018-07-05T15:54:44.009Z,22.90
2018-07-05T15:57:24.524Z,23.20
2018-07-05T16:00:04.220Z,23.50
2018-07-05T16:02:43.781Z,23.80
2018-07-05T16:05:23.314Z,24.20
2018-07-05T16:08:02.969Z,24.30
2018-07-05T16:10:42.749Z,24.50
2018-07-05T16:13:22.313Z,24.80
2018-07-05T16:16:01.979Z,24.90
2018-07-05T16:18:41.388Z,25.10
2018-07-05T16:21:21.075Z,25.40
2018-07-05T16:24:00.638Z,25.70
2018-07-05T16:26:40.283Z,26.00
2018-07-05T16:29:19.777Z,26.50
2018-07-05T16:31:59.384Z,26.80
2018-07-05T16:34:38.970Z,26.80
2018-07-05T16:37:18.690Z,26.70
2018-07-05T16:39:58.313Z,26.60
2018-07-05T16:42:37.840Z,26.60
2018-07-05T16:45:17.356Z,27.00
2018-07-05T16:47:57.085Z,27.20
2018-07-05T16:50:36.653Z,27.40
2018-07-05T16:55:50.025Z,27.90
2018-07-05T16:58:29.752Z,27.90
2018-07-05T17:01:09.393Z,28.00
2018-07-05T17:03:48.897Z,28.10
2018-07-05T17:06:29.439Z,28.20
2018-07-05T17:09:09.292Z,28.10
2018-07-05T17:11:49.431Z,28.00
2018-07-05T17:14:29.228Z,27.90
2018-07-05T17:17:09.014Z,27.90
2018-07-05T17:19:48.589Z,27.80
2018-07-05T17:22:28.224Z,27.70
2018-07-05T17:25:07.757Z,27.60
2018-07-05T17:27:47.419Z,27.70
2018-07-05T17:30:27.020Z,27.60
2018-07-05T17:33:07.605Z,27.60
2018-07-05T17:35:47.218Z,27.50
2018-07-05T17:38:26.692Z,27.40
2018-07-05T17:41:06.373Z,27.50
2018-07-05T17:43:46.510Z,27.50
2018-07-05T17:46:26.049Z,27.40
2018-07-05T17:49:05.613Z,27.20
2018-07-05T17:51:45.197Z,27.00
2018-07-05T17:54:24.751Z,27.00
2018-07-05T17:57:04.254Z,26.80
2018-07-05T17:59:43.816Z,26.50
2018-07-05T18:02:23.408Z,26.60
2018-07-05T18:05:03.188Z,26.50
2018-07-05T18:07:43.345Z,26.50
2018-07-05T18:10:22.836Z,26.50
2018-07-05T18:13:02.472Z,26.40
2018-07-05T18:15:42.165Z,26.30
2018-07-05T18:18:21.904Z,26.20
2018-07-05T18:21:01.501Z,26.20
2018-07-05T18:23:41.274Z,26.10
2018-07-05T18:26:22.230Z,26.00
2018-07-05T18:29:01.880Z,26.00
2018-07-05T18:31:41.702Z,25.90
2018-07-05T18:34:21.328Z,25.70
2018-07-05T18:37:01.233Z,25.70
2018-07-05T18:39:40.978Z,25.60
2018-07-05T18:42:20.687Z,25.50
2018-07-05T18:45:00.334Z,25.50
2018-07-05T18:47:40.365Z,25.40
2018-07-05T18:50:19.842Z,25.40
2018-07-05T18:52:59.630Z,25.20
2018-07-05T18:55:39.278Z,25.20
2018-07-05T18:58:19.870Z,25.20
2018-07-05T19:00:59.606Z,25.10
2018-07-05T19:03:39.423Z,25.00
2018-07-05T19:06:19.193Z,24.90
2018-07-05T19:08:58.972Z,24.80
2018-07-05T19:14:12.270Z,24.60
2018-07-05T19:16:51.779Z,24.60
2018-07-05T19:19:31.353Z,24.50
2018-07-05T19:22:10.844Z,24.30
2018-07-05T19:24:50.472Z,24.20
2018-07-05T19:30:03.619Z,24.00
2018-07-05T19:32:43.226Z,23.90
2018-07-05T19:35:23.343Z,23.80
2018-07-05T19:38:02.944Z,23.80
2018-07-05T19:40:42.671Z,23.70
2018-07-05T19:43:27.205Z,23.60
2018-07-05T19:46:06.684Z,23.50
2018-07-05T19:48:46.295Z,23.30
2018-07-05T19:51:26.372Z,23.30
2018-07-05T19:54:07.155Z,23.20
2018-07-05T19:56:46.720Z,23.10
2018-07-05T19:59:27.163Z,23.00
2018-07-05T20:02:06.797Z,23.00
2018-07-05T20:04:48.273Z,23.00
2018-07-05T20:07:27.985Z,22.90
2018-07-05T20:10:08.207Z,22.80
2018-07-05T20:12:47.987Z,22.60
2018-07-05T20:15:27.607Z,22.50
2018-07-05T20:18:07.228Z,22.50
2018-07-05T20:20:46.767Z,22.50
2018-07-05T20:23:26.432Z,22.40
2018-07-05T20:26:05.847Z,22.40
2018-07-05T20:28:45.455Z,22.30
2018-07-05T20:31:25.075Z,22.20
2018-07-05T20:34:04.485Z,22.10
2018-07-05T20:36:43.974Z,21.90
2018-07-05T20:39:23.440Z,21.90
2018-07-05T20:42:03.204Z,21.80
2018-07-05T20:44:42.762Z,21.80
2018-07-05T20:47:22.471Z,21.70
2018-07-05T20:50:02.026Z,21.60
2018-07-05T20:52:41.653Z,21.60
2018-07-05T20:55:21.192Z,21.70
2018-07-05T20:58:00.764Z,21.50
2018-07-05T21:00:40.350Z,21.50
2018-07-05T21:03:20.104Z,21.40
2018-07-05T21:06:01.730Z,21.40
2018-07-05T21:08:41.329Z,21.40
2018-07-05T21:11:20.922Z,21.30
2018-07-05T21:14:00.324Z,21.20
2018-07-05T21:16:41.701Z,21.00
2018-07-05T21:19:22.708Z,20.90
2018-07-05T21:22:02.349Z,20.90
2018-07-05T21:24:41.823Z,20.70
2018-07-05T21:27:21.488Z,20.70
2018-07-05T21:30:01.133Z,20.70
2018-07-05T21:32:40.782Z,20.60
2018-07-05T21:35:22.079Z,20.60
2018-07-05T21:38:02.186Z,20.60
2018-07-05T21:40:41.737Z,20.70
2018-07-05T21:43:21.661Z,20.60
2018-07-05T21:46:01.314Z,20.40
2018-07-05T21:48:40.931Z,20.30
2018-07-05T21:51:20.493Z,20.30
2018-07-05T21:54:00.040Z,20.20
2018-07-05T21:56:39.686Z,20.10
2018-07-05T21:59:19.487Z,20.00
2018-07-05T22:01:59.060Z,20.00
2018-07-05T22:04:38.740Z,20.10
2018-07-05T22:07:18.627Z,20.10
2018-07-05T22:09:58.213Z,20.10
2018-07-05T22:12:37.865Z,20.00
2018-07-05T22:15:17.428Z,19.90
2018-07-05T22:18:02.474Z,19.90
2018-07-05T22:21:49.088Z,19.90
2018-07-05T22:24:34.171Z,19.80
2018-07-05T22:27:19.197Z,19.80
2018-07-05T22:30:04.314Z,19.60
2018-07-05T22:32:44.146Z,19.60
2018-07-05T22:35:23.514Z,19.50
2018-07-05T22:38:03.173Z,19.40
2018-07-05T22:40:42.784Z,19.30
2018-07-05T22:43:22.390Z,19.30
2018-07-05T22:46:01.968Z,19.30
2018-07-05T22:48:41.712Z,19.30
2018-07-05T22:51:21.561Z,19.30
2018-07-05T22:54:01.138Z,19.20
2018-07-05T22:56:40.809Z,19.20
2018-07-05T22:59:20.192Z,19.20
2018-07-05T23:01:59.940Z,19.00
2018-07-05T23:04:39.582Z,18.90
2018-07-05T23:07:19.347Z,18.90
2018-07-05T23:09:58.918Z,18.90
2018-07-05T23:12:38.444Z,18.90
2018-07-05T23:15:18.042Z,18.90
2018-07-05T23:17:57.398Z,18.90
2018-07-05T23:20:38.557Z,18.80
2018-07-05T23:23:18.342Z,18.70
2018-07-05T23:25:57.930Z,18.70
2018-07-05T23:28:37.746Z,18.60
2018-07-05T23:31:17.490Z,18.60
2018-07-05T23:33:57.935Z,18.50
2018-07-05T23:36:37.429Z,18.50
2018-07-05T23:39:17.177Z,18.40
2018-07-05T23:41:56.607Z,18.40
2018-07-05T23:44:36.254Z,18.30
2018-07-05T23:47:15.894Z,18.20
2018-07-05T23:49:55.275Z,18.20
2018-07-05T23:52:34.958Z,18.00
2018-07-05T23:55:14.650Z,18.10
2018-07-05T23:57:54.253Z,18.10
